Time;durP1;ratioP1;P1;durP2;ratioP2;P2;SDS_P1;SDS_P2;PMS_P1;PMS_P2;Temp;Humidity;BMP_temperature;BMP_pressure;BME280_temperature;BME280_humidity;BME280_pressure;Samples;Min_cycle;Max_cycle;Signal;HPM_P1;HPM_P2
2022/08/20 00:02:10;;;;;;;19.33;16.30;;;;;;;;;;5041807;28;20347;-68
2022/08/20 00:04:36;;;;;;;19.10;17.25;;;;;;;;;;5041525;28;20423;-68
2022/08/20 00:07:02;;;;;;;20.50;17.08;;;;;;;;;;5041208;28;20205;-68
2022/08/20 00:09:29;;;;;;;17.92;16.23;;;;;;;;;;5041470;28;20198;-68
2022/08/20 00:11:55;;;;;;;18.50;16.45;;;;;;;;;;5041125;28;20243;-68
2022/08/20 00:14:22;;;;;;;18.88;17.05;;;;;;;;;;5041259;28;20198;-68
2022/08/20 00:16:49;;;;;;;18.60;16.80;;;;;;;;;;5041391;28;20545;-71
2022/08/20 00:19:16;;;;;;;17.77;16.15;;;;;;;;;;5041473;28;20198;-71
2022/08/20 00:21:42;;;;;;;17.27;15.48;;;;;;;;;;5041372;28;20449;-71
2022/08/20 00:24:08;;;;;;;18.27;14.88;;;;;;;;;;5041468;28;20236;-71
2022/08/20 00:26:34;;;;;;;16.85;15.18;;;;;;;;;;5041226;28;20194;-70
2022/08/20 00:29:01;;;;;;;16.40;14.63;;;;;;;;;;5041345;28;20243;-70
2022/08/20 00:31:29;;;;;;;15.82;14.32;;;;;;;;;;5041706;28;20201;-69
2022/08/20 00:33:55;;;;;;;16.38;14.70;;;;;;;;;;5041455;28;20272;-69
2022/08/20 00:36:22;;;;;;;14.98;13.45;;;;;;;;;;5041027;28;20226;-68
2022/08/20 00:38:48;;;;;;;15.90;14.48;;;;;;;;;;5041071;28;20198;-68
2022/08/20 00:41:15;;;;;;;16.27;14.00;;;;;;;;;;5041357;28;20501;-68
2022/08/20 00:43:44;;;;;;;15.88;14.20;;;;;;;;;;5041025;28;20202;-68
2022/08/20 00:46:12;;;;;;;15.65;14.13;;;;;;;;;;5040763;28;20193;-68
2022/08/20 00:48:41;;;;;;;15.93;14.48;;;;;;;;;;5041079;28;20198;-68
2022/08/20 00:51:09;;;;;;;16.58;14.90;;;;;;;;;;5040938;28;20198;-68
2022/08/20 00:53:36;;;;;;;22.17;15.52;;;;;;;;;;5040812;28;20250;-68
2022/08/20 00:56:04;;;;;;;18.23;14.30;;;;;;;;;;5040489;28;20383;-68
2022/08/20 00:58:30;;;;;;;16.15;14.45;;;;;;;;;;5040997;28;20505;-68
2022/08/20 01:00:56;;;;;;;15.25;13.80;;;;;;;;;;5040775;28;20202;-68
2022/08/20 01:03:23;;;;;;;17.65;15.38;;;;;;;;;;5040789;28;20205;-68
2022/08/20 01:05:51;;;;;;;15.32;13.82;;;;;;;;;;5040559;28;20214;-68
2022/08/20 01:08:19;;;;;;;15.93;14.55;;;;;;;;;;5040313;28;20201;-68
2022/08/20 01:10:47;;;;;;;16.85;14.90;;;;;;;;;;5040720;28;20428;-68
2022/08/20 01:13:15;;;;;;;15.80;14.15;;;;;;;;;;5040477;28;20272;-68
2022/08/20 01:15:46;;;;;;;16.17;14.68;;;;;;;;;;5040530;28;20275;-68
2022/08/20 01:18:14;;;;;;;16.52;13.95;;;;;;;;;;5040334;28;20250;-68
2022/08/20 01:20:42;;;;;;;16.60;14.95;;;;;;;;;;5040448;28;20427;-68
2022/08/20 01:23:28;;;;;;;15.13;13.93;;;;;;;;;;5039400;28;20233;-68
2022/08/20 01:25:59;;;;;;;13.95;12.50;;;;;;;;;;5040447;28;20501;-69
2022/08/20 01:28:28;;;;;;;14.73;13.23;;;;;;;;;;5040393;28;20486;-68
2022/08/20 01:30:54;;;;;;;14.35;12.90;;;;;;;;;;5040476;28;20201;-68
2022/08/20 01:33:22;;;;;;;13.52;11.85;;;;;;;;;;5040164;28;20197;-69
2022/08/20 01:35:49;;;;;;;13.85;12.43;;;;;;;;;;5040351;28;20225;-69
2022/08/20 01:38:15;;;;;;;14.95;13.55;;;;;;;;;;5040234;28;20266;-69
2022/08/20 01:40:50;;;;;;;14.05;12.55;;;;;;;;;;5040441;28;20247;-69
2022/08/20 01:43:17;;;;;;;13.82;12.35;;;;;;;;;;5039423;28;20205;-69
2022/08/20 01:45:44;;;;;;;12.65;11.35;;;;;;;;;;5040296;28;20201;-69
2022/08/20 01:48:10;;;;;;;14.98;11.80;;;;;;;;;;5039954;28;20418;-69
2022/08/20 01:50:39;;;;;;;13.48;12.05;;;;;;;;;;5040231;28;20419;-69
2022/08/20 01:53:08;;;;;;;12.90;11.70;;;;;;;;;;5040020;28;20509;-69
2022/08/20 01:55:34;;;;;;;10.85;9.80;;;;;;;;;;5039838;28;20229;-69
2022/08/20 01:58:01;;;;;;;11.82;10.77;;;;;;;;;;5039813;28;20210;-69
2022/08/20 02:00:28;;;;;;;10.98;9.80;;;;;;;;;;5040069;28;20283;-69
2022/08/20 02:02:55;;;;;;;10.32;9.48;;;;;;;;;;5039920;28;20206;-69
2022/08/20 02:05:21;;;;;;;10.85;9.73;;;;;;;;;;5039905;28;20222;-69
2022/08/20 02:07:48;;;;;;;10.15;9.25;;;;;;;;;;5039289;28;20197;-69
2022/08/20 02:10:15;;;;;;;9.32;8.63;;;;;;;;;;5040150;28;20359;-69
2022/08/20 02:12:41;;;;;;;11.65;9.13;;;;;;;;;;5039894;28;20198;-69
2022/08/20 02:15:10;;;;;;;8.38;7.78;;;;;;;;;;5039635;28;20197;-69
2022/08/20 02:17:38;;;;;;;8.88;8.20;;;;;;;;;;5039323;28;20285;-69
2022/08/20 02:20:07;;;;;;;8.32;7.55;;;;;;;;;;5039671;28;20197;-69
2022/08/20 02:22:36;;;;;;;7.75;7.13;;;;;;;;;;5039575;28;20198;-69
2022/08/20 02:25:04;;;;;;;9.90;7.18;;;;;;;;;;5039378;28;20206;-69
2022/08/20 02:27:30;;;;;;;7.88;7.38;;;;;;;;;;5039346;28;20198;-69
2022/08/20 02:29:57;;;;;;;7.18;6.68;;;;;;;;;;5039644;28;20205;-69
2022/08/20 02:32:23;;;;;;;7.63;7.13;;;;;;;;;;5039536;28;20244;-69
2022/08/20 02:34:51;;;;;;;8.20;7.50;;;;;;;;;;5039397;28;20546;-69
2022/08/20 02:37:18;;;;;;;8.13;7.45;;;;;;;;;;5039103;28;20240;-69
2022/08/20 02:39:44;;;;;;;8.25;7.53;;;;;;;;;;5039287;28;20209;-69
2022/08/20 02:42:11;;;;;;;7.72;7.13;;;;;;;;;;5039566;28;20198;-69
2022/08/20 02:44:37;;;;;;;8.30;7.50;;;;;;;;;;5039622;28;20202;-69
2022/08/20 02:47:04;;;;;;;8.90;8.07;;;;;;;;;;5039088;28;20230;-69
2022/08/20 02:49:30;;;;;;;10.00;8.57;;;;;;;;;;5039348;28;20198;-69
2022/08/20 02:51:58;;;;;;;8.68;8.05;;;;;;;;;;5039191;28;20205;-69
2022/08/20 02:54:24;;;;;;;7.72;7.22;;;;;;;;;;5039282;28;20259;-69
2022/08/20 02:56:51;;;;;;;10.20;7.85;;;;;;;;;;5039045;28;20224;-69
2022/08/20 02:59:17;;;;;;;8.38;7.53;;;;;;;;;;5039009;28;20521;-69
2022/08/20 03:01:43;;;;;;;8.60;7.80;;;;;;;;;;5039373;28;20193;-69
2022/08/20 03:04:10;;;;;;;7.85;7.18;;;;;;;;;;5038968;28;20197;-69
2022/08/20 03:06:37;;;;;;;7.55;6.75;;;;;;;;;;5038475;28;20259;-69
2022/08/20 03:09:06;;;;;;;7.47;6.82;;;;;;;;;;5039115;28;20206;-69
2022/08/20 03:11:33;;;;;;;6.25;5.85;;;;;;;;;;5039115;28;20206;-69
2022/08/20 03:13:59;;;;;;;7.57;6.88;;;;;;;;;;5038814;28;20208;-69
2022/08/20 03:16:26;;;;;;;8.85;6.20;;;;;;;;;;5038759;28;20218;-69
2022/08/20 03:18:52;;;;;;;6.03;5.53;;;;;;;;;;5038854;28;20529;-69
2022/08/20 03:21:18;;;;;;;5.75;5.28;;;;;;;;;;5038934;28;20543;-69
2022/08/20 03:23:45;;;;;;;7.15;4.95;;;;;;;;;;5038987;28;20389;-69
2022/08/20 03:26:13;;;;;;;5.32;4.93;;;;;;;;;;5038679;28;20368;-69
2022/08/20 03:28:40;;;;;;;5.28;4.82;;;;;;;;;;5038851;28;20198;-69
2022/08/20 03:31:06;;;;;;;5.20;4.85;;;;;;;;;;5038711;28;20547;-69
2022/08/20 03:33:33;;;;;;;5.97;5.57;;;;;;;;;;5038618;28;20198;-69
2022/08/20 03:35:59;;;;;;;6.47;5.13;;;;;;;;;;5038296;28;20214;-69
2022/08/20 03:38:26;;;;;;;5.22;4.65;;;;;;;;;;5038742;28;20205;-69
2022/08/20 03:40:52;;;;;;;4.97;4.53;;;;;;;;;;5038703;28;20202;-69
2022/08/20 03:43:20;;;;;;;4.90;4.50;;;;;;;;;;5038580;28;20209;-69
2022/08/20 03:45:46;;;;;;;5.05;4.65;;;;;;;;;;5039874;28;20366;-69
2022/08/20 03:48:14;;;;;;;4.38;4.05;;;;;;;;;;5041590;28;20229;-69
2022/08/20 03:50:41;;;;;;;7.32;4.10;;;;;;;;;;5041885;28;20205;-69
2022/08/20 03:53:08;;;;;;;8.60;4.43;;;;;;;;;;5041779;28;20385;-69
2022/08/20 03:55:34;;;;;;;6.07;3.90;;;;;;;;;;5041755;28;20277;-69
2022/08/20 03:58:02;;;;;;;4.70;4.30;;;;;;;;;;5041515;28;20230;-69
2022/08/20 04:00:31;;;;;;;4.80;4.40;;;;;;;;;;5041588;28;20227;-69
2022/08/20 04:02:57;;;;;;;4.95;4.57;;;;;;;;;;5041437;28;20350;-69
2022/08/20 04:05:24;;;;;;;5.05;4.65;;;;;;;;;;5041841;28;20225;-69
2022/08/20 04:07:50;;;;;;;4.60;4.30;;;;;;;;;;5041512;28;20193;-70
2022/08/20 04:10:16;;;;;;;5.00;4.60;;;;;;;;;;5041572;28;20237;-69
2022/08/20 04:12:42;;;;;;;5.07;4.78;;;;;;;;;;5041684;28;20204;-69
2022/08/20 04:15:09;;;;;;;4.45;4.25;;;;;;;;;;5041523;28;20198;-68
2022/08/20 04:17:38;;;;;;;4.70;4.40;;;;;;;;;;5041069;28;20226;-69
2022/08/20 04:20:05;;;;;;;4.53;4.18;;;;;;;;;;5041422;28;20198;-69
2022/08/20 04:22:31;;;;;;;6.57;4.55;;;;;;;;;;5041466;28;20197;-69
2022/08/20 04:24:57;;;;;;;5.53;4.32;;;;;;;;;;5041531;28;20198;-69
2022/08/20 04:27:24;;;;;;;4.80;4.50;;;;;;;;;;5041192;28;20194;-69
2022/08/20 04:29:50;;;;;;;4.55;4.20;;;;;;;;;;5041347;28;20197;-69
2022/08/20 04:32:16;;;;;;;5.00;4.63;;;;;;;;;;5041712;28;20610;-69
2022/08/20 04:34:44;;;;;;;4.70;4.30;;;;;;;;;;5041518;28;20236;-69
2022/08/20 04:37:11;;;;;;;7.10;5.25;;;;;;;;;;5040865;28;20224;-69
2022/08/20 04:39:38;;;;;;;5.05;4.65;;;;;;;;;;5041250;28;20198;-69
2022/08/20 04:42:04;;;;;;;6.35;4.55;;;;;;;;;;5041135;28;20206;-69
2022/08/20 04:44:30;;;;;;;5.60;5.10;;;;;;;;;;5041021;28;20206;-69
2022/08/20 04:46:57;;;;;;;5.15;4.75;;;;;;;;;;5040914;28;20198;-69
2022/08/20 04:49:25;;;;;;;5.18;4.70;;;;;;;;;;5041101;28;20226;-69
2022/08/20 04:51:53;;;;;;;5.22;4.90;;;;;;;;;;5041103;28;20493;-69
2022/08/20 04:54:19;;;;;;;6.57;5.18;;;;;;;;;;5040977;28;20405;-69
2022/08/20 04:56:47;;;;;;;5.07;4.65;;;;;;;;;;5039491;28;20228;-69
2022/08/20 04:59:13;;;;;;;4.72;4.40;;;;;;;;;;5040620;28;20405;-69
2022/08/20 05:01:40;;;;;;;5.45;5.15;;;;;;;;;;5040955;28;20209;-69
2022/08/20 05:04:06;;;;;;;7.32;5.00;;;;;;;;;;5040841;28;20198;-69
2022/08/20 05:06:32;;;;;;;4.93;4.63;;;;;;;;;;5040316;28;20221;-69
2022/08/20 05:09:00;;;;;;;4.63;4.30;;;;;;;;;;5040749;28;20198;-69
2022/08/20 05:11:27;;;;;;;5.15;4.75;;;;;;;;;;5040518;28;20206;-69
2022/08/20 05:13:53;;;;;;;5.18;4.65;;;;;;;;;;5040668;28;20225;-69
2022/08/20 05:16:20;;;;;;;4.40;4.20;;;;;;;;;;5040047;28;20198;-69
2022/08/20 05:18:46;;;;;;;5.05;3.92;;;;;;;;;;5040550;28;20529;-69
2022/08/20 05:21:13;;;;;;;3.95;3.65;;;;;;;;;;5040698;28;20194;-69
2022/08/20 05:23:40;;;;;;;6.88;3.63;;;;;;;;;;5040538;28;20204;-69
2022/08/20 05:26:08;;;;;;;8.30;4.28;;;;;;;;;;5040142;28;20427;-69
2022/08/20 05:28:37;;;;;;;4.53;4.15;;;;;;;;;;5040314;28;20201;-69
2022/08/20 05:31:06;;;;;;;7.07;4.28;;;;;;;;;;5040509;28;20197;-69
2022/08/20 05:33:32;;;;;;;4.05;3.80;;;;;;;;;;5040325;28;20198;-69
2022/08/20 05:35:59;;;;;;;4.95;4.55;;;;;;;;;;5040312;28;20198;-69
2022/08/20 05:38:27;;;;;;;5.88;4.15;;;;;;;;;;5040012;28;20254;-69
2022/08/20 05:40:53;;;;;;;4.47;4.28;;;;;;;;;;5040192;28;20213;-69
2022/08/20 05:43:21;;;;;;;4.72;4.43;;;;;;;;;;5040010;28;20206;-69
2022/08/20 05:45:51;;;;;;;4.93;4.57;;;;;;;;;;5040017;28;20197;-69
2022/08/20 05:48:19;;;;;;;4.60;4.30;;;;;;;;;;5039684;28;20190;-69
2022/08/20 05:50:47;;;;;;;4.38;4.07;;;;;;;;;;5040164;28;20205;-69
2022/08/20 05:53:15;;;;;;;5.82;4.38;;;;;;;;;;5039778;28;20561;-69
2022/08/20 05:55:41;;;;;;;4.50;4.20;;;;;;;;;;5040264;28;20198;-69
2022/08/20 05:58:13;;;;;;;7.40;4.32;;;;;;;;;;5039747;28;20571;-69
2022/08/20 06:00:41;;;;;;;4.95;4.50;;;;;;;;;;5040194;28;20206;-69
2022/08/20 06:05:51;;;;;;;4.60;4.30;;;;;;;;;;5039637;28;20217;-69
2022/08/20 06:08:17;;;;;;;5.38;4.50;;;;;;;;;;5039318;28;20194;-69
2022/08/20 06:10:43;;;;;;;4.43;4.13;;;;;;;;;;5039876;28;20197;-69
2022/08/20 06:13:10;;;;;;;4.43;4.03;;;;;;;;;;5039781;28;20205;-69
2022/08/20 06:15:37;;;;;;;6.15;5.07;;;;;;;;;;5039725;28;20197;-69
2022/08/20 06:18:07;;;;;;;5.90;5.25;;;;;;;;;;5039228;28;20217;-69
2022/08/20 06:20:35;;;;;;;7.35;4.80;;;;;;;;;;5039574;28;20204;-69
2022/08/20 06:23:01;;;;;;;8.32;7.45;;;;;;;;;;5039690;28;20271;-69
2022/08/20 06:25:28;;;;;;;9.48;5.25;;;;;;;;;;5039600;28;20198;-69
2022/08/20 06:27:54;;;;;;;6.03;5.53;;;;;;;;;;5039433;28;20194;-69
2022/08/20 06:30:21;;;;;;;9.15;8.35;;;;;;;;;;5039452;28;20198;-69
2022/08/20 06:32:48;;;;;;;5.40;4.93;;;;;;;;;;5039454;28;20356;-69
2022/08/20 06:35:15;;;;;;;5.10;4.30;;;;;;;;;;5039264;28;20197;-69
2022/08/20 06:37:41;;;;;;;5.38;5.07;;;;;;;;;;5039037;28;20218;-69
2022/08/20 06:40:10;;;;;;;5.25;4.85;;;;;;;;;;5039350;28;20205;-69
2022/08/20 06:42:42;;;;;;;5.78;5.25;;;;;;;;;;5039565;28;20202;-69
2022/08/20 06:45:09;;;;;;;5.10;4.50;;;;;;;;;;5039233;28;20202;-69
2022/08/20 06:47:38;;;;;;;5.20;4.72;;;;;;;;;;5038957;28;20524;-69
2022/08/20 06:50:07;;;;;;;5.82;4.97;;;;;;;;;;5039290;28;20205;-69
2022/08/20 06:52:38;;;;;;;5.68;5.07;;;;;;;;;;5038927;28;20235;-69
2022/08/20 06:55:04;;;;;;;5.80;5.30;;;;;;;;;;5039196;28;20397;-69
2022/08/20 06:57:31;;;;;;;6.80;5.30;;;;;;;;;;5038750;28;20217;-69
2022/08/20 06:59:57;;;;;;;5.30;4.90;;;;;;;;;;5039053;28;20221;-69
2022/08/20 07:02:23;;;;;;;5.30;4.90;;;;;;;;;;5039050;28;20392;-69
2022/08/20 07:04:50;;;;;;;6.70;5.85;;;;;;;;;;5039139;28;20217;-69
2022/08/20 07:07:17;;;;;;;6.00;5.40;;;;;;;;;;5038959;28;20201;-69
2022/08/20 07:09:45;;;;;;;8.02;5.07;;;;;;;;;;5038898;28;20391;-69
2022/08/20 07:12:11;;;;;;;6.00;5.40;;;;;;;;;;5038792;28;20251;-69
2022/08/20 07:14:38;;;;;;;5.82;5.38;;;;;;;;;;5038803;28;20367;-69
2022/08/20 07:17:05;;;;;;;4.90;4.70;;;;;;;;;;5038443;28;20220;-69
2022/08/20 07:19:32;;;;;;;5.47;5.15;;;;;;;;;;5038624;28;20398;-69
2022/08/20 07:21:58;;;;;;;6.45;5.90;;;;;;;;;;5042115;28;20198;-69
2022/08/20 07:24:25;;;;;;;8.30;7.43;;;;;;;;;;5042223;28;20190;-69
2022/08/20 07:26:52;;;;;;;11.18;10.00;;;;;;;;;;5042076;28;20238;-70
2022/08/20 07:29:19;;;;;;;5.72;5.35;;;;;;;;;;5042079;28;20269;-69
2022/08/20 07:34:30;;;;;;;4.55;4.35;;;;;;;;;;5042177;28;20427;-70
2022/08/20 07:36:58;;;;;;;6.15;5.50;;;;;;;;;;5041662;28;20269;-70
2022/08/20 07:39:24;;;;;;;5.28;4.80;;;;;;;;;;5041973;28;20198;-70
2022/08/20 07:42:01;;;;;;;5.00;4.70;;;;;;;;;;5042200;28;20514;-70
2022/08/20 07:44:29;;;;;;;5.72;5.30;;;;;;;;;;5042147;28;20202;-70
2022/08/20 07:46:55;;;;;;;5.35;4.95;;;;;;;;;;5041733;28;20235;-70
2022/08/20 07:49:22;;;;;;;4.20;4.03;;;;;;;;;;5042215;28;20198;-70
2022/08/20 07:51:48;;;;;;;5.18;4.80;;;;;;;;;;5042010;28;20197;-70
2022/08/20 07:54:14;;;;;;;5.00;4.70;;;;;;;;;;5041740;28;20449;-70
2022/08/20 07:56:40;;;;;;;5.50;4.82;;;;;;;;;;5041740;28;20243;-70
2022/08/20 07:59:07;;;;;;;5.90;5.28;;;;;;;;;;5041906;28;20222;-70
2022/08/20 08:01:34;;;;;;;5.25;4.90;;;;;;;;;;5042284;28;20235;-70
2022/08/20 08:04:01;;;;;;;6.57;5.40;;;;;;;;;;5042001;28;20208;-70
2022/08/20 08:06:28;;;;;;;5.72;5.30;;;;;;;;;;5041365;28;20289;-70
2022/08/20 08:08:55;;;;;;;4.75;4.50;;;;;;;;;;5041608;28;20197;-70
2022/08/20 08:11:22;;;;;;;5.60;5.20;;;;;;;;;;5041774;28;20220;-70
2022/08/20 08:13:48;;;;;;;5.72;5.22;;;;;;;;;;5041750;28;20251;-70
2022/08/20 08:16:15;;;;;;;6.85;5.60;;;;;;;;;;5041342;28;20220;-70
2022/08/20 08:18:43;;;;;;;4.65;4.43;;;;;;;;;;5041440;28;20223;-70
2022/08/20 08:21:11;;;;;;;4.78;4.53;;;;;;;;;;5041416;28;20430;-70
2022/08/20 08:23:39;;;;;;;5.05;4.75;;;;;;;;;;5041457;28;20210;-70
2022/08/20 08:26:05;;;;;;;4.80;4.32;;;;;;;;;;5041268;28;20520;-70
2022/08/20 08:28:31;;;;;;;4.78;4.43;;;;;;;;;;5041396;28;20484;-70
2022/08/20 08:30:58;;;;;;;7.82;6.90;;;;;;;;;;5041125;28;20375;-70
2022/08/20 08:33:28;;;;;;;5.38;4.97;;;;;;;;;;5041318;28;20198;-70
2022/08/20 08:35:55;;;;;;;6.35;5.75;;;;;;;;;;5040948;28;20588;-70
2022/08/20 08:38:22;;;;;;;7.65;6.38;;;;;;;;;;5041257;28;20222;-70
2022/08/20 08:40:50;;;;;;;5.60;4.80;;;;;;;;;;5041164;28;20198;-70
2022/08/20 08:43:20;;;;;;;5.03;4.63;;;;;;;;;;5041167;28;20198;-70
2022/08/20 08:45:49;;;;;;;10.27;5.90;;;;;;;;;;5040873;28;20269;-70
2022/08/20 08:48:17;;;;;;;5.13;4.63;;;;;;;;;;5042094;28;20198;-70
2022/08/20 08:50:45;;;;;;;4.63;4.43;;;;;;;;;;5041119;28;20251;-70
2022/08/20 08:53:18;;;;;;;6.80;4.72;;;;;;;;;;5040969;28;20220;-70
2022/08/20 08:55:44;;;;;;;5.07;4.65;;;;;;;;;;5040833;28;20205;-70
2022/08/20 08:58:10;;;;;;;5.82;4.55;;;;;;;;;;5040703;28;20214;-70
2022/08/20 09:00:37;;;;;;;5.00;4.60;;;;;;;;;;5040720;28;20267;-70
2022/08/20 09:03:06;;;;;;;5.07;4.78;;;;;;;;;;5040808;28;20198;-69
2022/08/20 09:05:39;;;;;;;4.40;4.20;;;;;;;;;;5040873;28;20363;-69
2022/08/20 09:08:10;;;;;;;4.68;4.38;;;;;;;;;;5040349;28;20218;-70
2022/08/20 09:10:38;;;;;;;4.97;4.35;;;;;;;;;;5040690;28;20474;-70
2022/08/20 09:13:05;;;;;;;4.25;3.97;;;;;;;;;;5040508;28;20198;-70
2022/08/20 09:15:31;;;;;;;4.05;3.75;;;;;;;;;;5040746;28;20243;-70
2022/08/20 09:17:57;;;;;;;3.72;3.53;;;;;;;;;;5040328;28;20447;-70
2022/08/20 09:20:24;;;;;;;7.97;4.57;;;;;;;;;;5040626;28;20210;-70
2022/08/20 09:22:50;;;;;;;3.67;3.47;;;;;;;;;;5040422;28;20202;-70
2022/08/20 09:25:16;;;;;;;6.65;4.05;;;;;;;;;;5040533;28;20202;-70
2022/08/20 09:27:44;;;;;;;5.70;4.20;;;;;;;;;;5040079;28;20204;-69
2022/08/20 09:30:11;;;;;;;4.28;3.97;;;;;;;;;;5040208;28;20405;-69
2022/08/20 09:32:37;;;;;;;4.93;4.55;;;;;;;;;;5040307;28;20244;-69
2022/08/20 09:35:04;;;;;;;11.45;4.53;;;;;;;;;;5040165;28;20198;-70
2022/08/20 09:37:31;;;;;;;5.47;4.97;;;;;;;;;;5040013;28;20198;-71
2022/08/20 09:39:58;;;;;;;7.55;5.18;;;;;;;;;;5040163;28;20406;-71
2022/08/20 09:42:25;;;;;;;7.30;4.95;;;;;;;;;;5039814;28;20497;-71
2022/08/20 09:44:53;;;;;;;6.18;4.60;;;;;;;;;;5039752;28;20204;-71
2022/08/20 09:47:19;;;;;;;3.53;3.30;;;;;;;;;;5039948;28;20202;-70
2022/08/20 09:49:45;;;;;;;8.52;3.10;;;;;;;;;;5039951;28;20194;-71
2022/08/20 09:52:17;;;;;;;3.58;3.05;;;;;;;;;;5040147;28;20202;-71
2022/08/20 09:54:44;;;;;;;3.60;3.17;;;;;;;;;;5039975;28;20231;-69
2022/08/20 09:57:11;;;;;;;4.43;3.25;;;;;;;;;;5039613;28;20261;-69
2022/08/20 09:59:37;;;;;;;3.67;3.35;;;;;;;;;;5039816;28;20439;-69
2022/08/20 10:02:05;;;;;;;3.55;3.35;;;;;;;;;;5040065;28;20562;-69
2022/08/20 10:04:31;;;;;;;5.88;4.40;;;;;;;;;;5040104;28;20412;-69
2022/08/20 10:06:57;;;;;;;12.27;5.10;;;;;;;;;;5039701;28;20235;-70
2022/08/20 10:09:24;;;;;;;9.85;4.18;;;;;;;;;;5039533;28;20194;-69
2022/08/20 10:11:50;;;;;;;8.32;4.07;;;;;;;;;;5039801;28;20209;-69
2022/08/20 10:14:16;;;;;;;5.78;4.20;;;;;;;;;;5039485;28;20205;-70
2022/08/20 10:16:42;;;;;;;4.28;4.07;;;;;;;;;;5039420;28;20375;-70
2022/08/20 10:19:10;;;;;;;4.47;4.15;;;;;;;;;;5039420;28;20221;-69
2022/08/20 10:21:36;;;;;;;4.93;4.40;;;;;;;;;;5040168;28;20204;-70
2022/08/20 10:24:03;;;;;;;6.22;5.00;;;;;;;;;;5039351;28;20209;-70
2022/08/20 10:26:29;;;;;;;6.82;4.00;;;;;;;;;;5039204;28;20201;-70
2022/08/20 10:28:55;;;;;;;4.38;4.13;;;;;;;;;;5039468;28;20193;-69
2022/08/20 10:31:22;;;;;;;4.93;4.53;;;;;;;;;;5039379;28;20423;-70
2022/08/20 10:33:48;;;;;;;7.45;3.70;;;;;;;;;;5039359;28;20198;-69
2022/08/20 10:36:17;;;;;;;4.97;4.47;;;;;;;;;;5039141;28;20224;-70
2022/08/20 10:38:44;;;;;;;6.57;4.28;;;;;;;;;;5039187;28;20225;-70
2022/08/20 10:41:10;;;;;;;4.93;4.22;;;;;;;;;;5039504;28;20201;-70
2022/08/20 10:43:36;;;;;;;8.88;5.03;;;;;;;;;;5039115;28;20197;-70
2022/08/20 10:46:03;;;;;;;4.82;4.03;;;;;;;;;;5038926;28;20204;-70
2022/08/20 10:48:29;;;;;;;6.85;4.80;;;;;;;;;;5039133;28;20208;-70
2022/08/20 10:50:55;;;;;;;5.75;4.80;;;;;;;;;;5038996;28;20366;-70
2022/08/20 10:53:23;;;;;;;5.22;3.97;;;;;;;;;;5038900;28;20227;-70
2022/08/20 10:55:49;;;;;;;5.15;3.47;;;;;;;;;;5040678;28;20198;-70
2022/08/20 10:58:16;;;;;;;4.07;3.35;;;;;;;;;;5042248;28;20218;-70
2022/08/20 11:00:42;;;;;;;2.28;1.90;;;;;;;;;;5042663;28;20204;-70
2022/08/20 11:03:08;;;;;;;1.50;1.50;;;;;;;;;;5042550;28;20198;-69
2022/08/20 11:05:34;;;;;;;2.97;1.08;;;;;;;;;;5042449;28;20263;-69
2022/08/20 11:08:02;;;;;;;0.68;0.68;;;;;;;;;;5042032;28;20205;-70
2022/08/20 11:10:32;;;;;;;0.70;0.50;;;;;;;;;;5042427;28;20205;-70
2022/08/20 11:12:58;;;;;;;0.68;0.68;;;;;;;;;;5042469;28;20265;-70
2022/08/20 11:15:24;;;;;;;1.88;0.88;;;;;;;;;;5042511;28;20198;-69
2022/08/20 11:17:50;;;;;;;1.20;1.20;;;;;;;;;;5041959;28;20198;-69
2022/08/20 11:20:19;;;;;;;1.83;1.15;;;;;;;;;;5042206;28;20225;-69
2022/08/20 11:22:45;;;;;;;2.40;1.95;;;;;;;;;;5042364;28;20502;-69
2022/08/20 11:25:12;;;;;;;4.07;3.65;;;;;;;;;;5042305;28;20198;-69
2022/08/20 11:27:40;;;;;;;5.00;2.20;;;;;;;;;;5041996;28;20198;-69
2022/08/20 11:30:09;;;;;;;2.75;2.60;;;;;;;;;;5042180;28;20239;-69
2022/08/20 11:32:36;;;;;;;1.42;1.02;;;;;;;;;;5042459;28;20205;-69
2022/08/20 11:35:02;;;;;;;1.25;1.00;;;;;;;;;;5042181;28;20242;-69
2022/08/20 11:37:28;;;;;;;2.05;1.00;;;;;;;;;;5042034;28;20201;-69
2022/08/20 11:39:55;;;;;;;1.27;1.27;;;;;;;;;;5042020;28;20334;-69
2022/08/20 11:42:21;;;;;;;1.67;1.58;;;;;;;;;;5042017;28;20205;-69
2022/08/20 11:44:49;;;;;;;5.22;1.92;;;;;;;;;;5041857;28;20475;-69
2022/08/20 11:47:20;;;;;;;2.20;2.10;;;;;;;;;;5042082;28;20208;-70
2022/08/20 11:49:46;;;;;;;2.15;2.05;;;;;;;;;;5042055;28;20201;-70
2022/08/20 11:52:12;;;;;;;2.70;2.60;;;;;;;;;;5041951;28;20197;-70
2022/08/20 11:54:39;;;;;;;6.50;2.35;;;;;;;;;;5041695;28;20220;-70
2022/08/20 11:57:05;;;;;;;2.55;2.35;;;;;;;;;;5041416;28;20205;-70
2022/08/20 11:59:32;;;;;;;2.50;2.30;;;;;;;;;;5041765;28;20255;-70
2022/08/20 12:02:00;;;;;;;2.58;2.47;;;;;;;;;;5041464;28;20251;-70
2022/08/20 12:04:26;;;;;;;2.63;2.55;;;;;;;;;;5041643;28;20198;-70
2022/08/20 12:06:52;;;;;;;3.40;2.70;;;;;;;;;;5041120;28;20209;-70
2022/08/20 12:09:18;;;;;;;3.22;2.92;;;;;;;;;;5041470;28;20198;-70
2022/08/20 12:11:45;;;;;;;2.58;2.55;;;;;;;;;;5041600;28;20198;-70
2022/08/20 12:14:11;;;;;;;2.85;2.65;;;;;;;;;;5041382;28;20389;-70
2022/08/20 12:16:37;;;;;;;2.63;2.53;;;;;;;;;;5041197;28;20250;-70
2022/08/20 12:19:05;;;;;;;2.65;2.45;;;;;;;;;;5041482;28;20292;-70
2022/08/20 12:21:31;;;;;;;3.10;2.90;;;;;;;;;;5041561;28;20213;-70
2022/08/20 12:23:58;;;;;;;2.03;1.92;;;;;;;;;;5041315;28;20205;-69
2022/08/20 12:26:24;;;;;;;1.98;1.88;;;;;;;;;;5041115;28;20202;-70
2022/08/20 12:28:50;;;;;;;2.45;1.75;;;;;;;;;;5041224;28;20193;-70
2022/08/20 12:31:16;;;;;;;4.45;1.77;;;;;;;;;;5041147;28;20205;-70
2022/08/20 12:33:42;;;;;;;2.20;1.98;;;;;;;;;;5041439;28;20202;-70
2022/08/20 12:36:10;;;;;;;1.77;1.70;;;;;;;;;;5041084;28;20210;-70
2022/08/20 12:38:37;;;;;;;2.03;1.70;;;;;;;;;;5040947;28;20210;-70
2022/08/20 12:41:03;;;;;;;1.40;1.33;;;;;;;;;;5041060;28;20398;-70
2022/08/20 12:43:29;;;;;;;2.65;1.65;;;;;;;;;;5041073;28;20542;-70
2022/08/20 12:45:55;;;;;;;1.98;1.88;;;;;;;;;;5040710;28;20427;-70
2022/08/20 12:48:22;;;;;;;2.35;2.22;;;;;;;;;;5040972;28;20428;-70
2022/08/20 12:50:48;;;;;;;3.05;2.47;;;;;;;;;;5041172;28;20493;-69
2022/08/20 12:53:16;;;;;;;1.90;1.80;;;;;;;;;;5040757;28;20201;-69
2022/08/20 12:55:42;;;;;;;2.78;1.77;;;;;;;;;;5040891;28;20209;-70
2022/08/20 12:58:09;;;;;;;1.80;1.70;;;;;;;;;;5040546;28;20197;-70
2022/08/20 13:00:37;;;;;;;2.15;1.52;;;;;;;;;;5040725;28;20274;-70
2022/08/20 13:03:04;;;;;;;2.88;2.40;;;;;;;;;;5040814;28;20198;-69
2022/08/20 13:05:31;;;;;;;4.70;2.05;;;;;;;;;;5040021;28;20226;-70
2022/08/20 13:07:57;;;;;;;2.10;2.00;;;;;;;;;;5039834;28;20197;-70
2022/08/20 13:10:27;;;;;;;2.90;2.13;;;;;;;;;;5040111;28;20382;-70
2022/08/20 13:12:53;;;;;;;1.98;1.88;;;;;;;;;;5039886;28;20297;-70
2022/08/20 13:15:19;;;;;;;1.92;1.83;;;;;;;;;;5040308;28;20450;-70
2022/08/20 13:17:46;;;;;;;1.95;1.85;;;;;;;;;;5038712;28;20197;-69
2022/08/20 13:20:13;;;;;;;2.33;2.20;;;;;;;;;;5039766;28;20533;-70
2022/08/20 13:22:40;;;;;;;3.58;2.03;;;;;;;;;;5039813;28;20205;-70
2022/08/20 13:25:07;;;;;;;2.10;2.00;;;;;;;;;;5039743;28;20197;-70
2022/08/20 13:27:37;;;;;;;2.88;1.70;;;;;;;;;;5039378;28;20236;-69
2022/08/20 13:30:04;;;;;;;3.85;2.22;;;;;;;;;;5039944;28;20200;-70
2022/08/20 13:32:31;;;;;;;2.05;1.90;;;;;;;;;;5039659;28;20205;-70
2022/08/20 13:34:57;;;;;;;1.88;1.77;;;;;;;;;;5039417;28;20205;-70
2022/08/20 13:37:24;;;;;;;3.03;2.78;;;;;;;;;;5039249;28;20202;-70
2022/08/20 13:39:50;;;;;;;12.07;4.93;;;;;;;;;;5039545;28;20562;-70
2022/08/20 13:42:17;;;;;;;9.23;4.43;;;;;;;;;;5039730;28;20205;-70
2022/08/20 13:44:44;;;;;;;7.40;3.53;;;;;;;;;;5039747;28;20198;-69
2022/08/20 13:47:14;;;;;;;5.57;2.95;;;;;;;;;;5039245;28;20202;-69
2022/08/20 13:49:41;;;;;;;7.78;3.30;;;;;;;;;;5039389;28;20200;-69
2022/08/20 13:52:07;;;;;;;2.58;2.20;;;;;;;;;;5039171;28;20273;-69
2022/08/20 13:54:33;;;;;;;4.68;2.45;;;;;;;;;;5039134;28;20242;-69
2022/08/20 13:57:03;;;;;;;3.42;2.40;;;;;;;;;;5038921;28;20198;-69
2022/08/20 13:59:30;;;;;;;5.25;2.83;;;;;;;;;;5039378;28;20300;-69
2022/08/20 14:01:57;;;;;;;2.83;2.00;;;;;;;;;;5039238;28;20201;-69
2022/08/20 14:04:23;;;;;;;2.35;2.20;;;;;;;;;;5039309;28;20197;-70
2022/08/20 14:06:50;;;;;;;2.33;1.75;;;;;;;;;;5038819;28;20226;-70
2022/08/20 14:09:16;;;;;;;2.08;1.50;;;;;;;;;;5038966;28;20266;-70
2022/08/20 14:11:42;;;;;;;1.20;1.20;;;;;;;;;;5039033;28;20270;-70
2022/08/20 14:14:08;;;;;;;5.43;1.25;;;;;;;;;;5039083;28;20288;-70
2022/08/20 14:16:36;;;;;;;2.72;2.53;;;;;;;;;;5038926;28;20201;-70
2022/08/20 14:19:04;;;;;;;3.95;1.92;;;;;;;;;;5038851;28;20201;-70
2022/08/20 14:21:30;;;;;;;3.55;2.05;;;;;;;;;;5039311;28;20204;-70
2022/08/20 14:23:57;;;;;;;3.80;1.40;;;;;;;;;;5038781;28;20201;-70
2022/08/20 14:26:23;;;;;;;3.22;1.90;;;;;;;;;;5038562;28;20505;-70
2022/08/20 14:28:50;;;;;;;1.20;1.10;;;;;;;;;;5038590;28;20205;-70
2022/08/20 14:31:16;;;;;;;1.50;1.40;;;;;;;;;;5038878;28;20201;-69
2022/08/20 14:33:42;;;;;;;2.72;1.60;;;;;;;;;;5038786;28;20201;-69
2022/08/20 14:36:10;;;;;;;2.25;1.20;;;;;;;;;;5038391;28;20208;-70
2022/08/20 14:38:40;;;;;;;1.45;1.35;;;;;;;;;;5038874;28;20206;-70
2022/08/20 14:41:06;;;;;;;5.28;1.42;;;;;;;;;;5038918;28;20577;-70
2022/08/20 14:43:32;;;;;;;1.83;1.23;;;;;;;;;;5039207;28;20423;-70